createdAt,value
2022-10-01T00:04:39.856Z,85.91
2022-10-01T00:09:45.976Z,86.08
2022-10-01T00:14:52.475Z,86.02
2022-10-01T00:20:00.071Z,86.45
2022-10-01T00:25:07.770Z,86.40
2022-10-01T00:30:14.619Z,86.35
2022-10-01T00:35:22.549Z,86.26
2022-10-01T00:40:28.502Z,85.92
2022-10-01T00:45:34.510Z,85.73
2022-10-01T00:50:42.371Z,86.19
2022-10-01T00:55:54.452Z,86.19
2022-10-01T01:01:00.500Z,87.05
2022-10-01T01:06:10.043Z,86.51
2022-10-01T01:11:27.746Z,86.34
2022-10-01T01:16:41.310Z,86.04
2022-10-01T01:21:54.909Z,86.11
2022-10-01T01:27:31.600Z,86.27
2022-10-01T01:32:48.227Z,86.34
2022-10-01T01:38:02.310Z,86.55
2022-10-01T01:43:17.798Z,86.29
2022-10-01T01:48:26.242Z,86.15
2022-10-01T01:53:33.372Z,85.85
2022-10-01T01:58:40.858Z,85.65
2022-10-01T02:03:48.191Z,85.59
2022-10-01T02:09:02.566Z,86.34
2022-10-01T02:14:22.610Z,86.50
2022-10-01T02:19:38.306Z,87.11
2022-10-01T02:24:57.241Z,86.98
2022-10-01T02:30:08.163Z,87.24
2022-10-01T02:35:20.706Z,87.82
2022-10-01T02:40:31.455Z,87.80
2022-10-01T02:45:40.831Z,88.19
2022-10-01T02:50:53.309Z,88.40
2022-10-01T02:56:02.283Z,88.39
2022-10-01T03:01:08.949Z,87.86
2022-10-01T03:06:16.272Z,87.50
2022-10-01T03:11:22.569Z,86.67
2022-10-01T03:16:28.685Z,86.77
2022-10-01T03:21:36.329Z,86.46
2022-10-01T03:26:43.396Z,85.45
2022-10-01T03:31:50.222Z,85.79
2022-10-01T03:36:57.768Z,84.94
2022-10-01T03:42:06.131Z,84.21
2022-10-01T03:47:12.594Z,84.34
2022-10-01T03:52:20.705Z,83.79
2022-10-01T03:57:26.912Z,83.45
2022-10-01T04:02:32.872Z,82.57
2022-10-01T04:07:40.400Z,82.04
2022-10-01T04:12:46.428Z,82.64
2022-10-01T04:17:52.449Z,82.59
2022-10-01T04:22:59.931Z,82.34
2022-10-01T04:28:08.961Z,82.06
2022-10-01T04:33:17.333Z,80.43
2022-10-01T04:38:24.753Z,80.81
2022-10-01T04:43:30.827Z,80.52
2022-10-01T04:48:36.840Z,80.38
2022-10-01T04:53:44.986Z,81.00
2022-10-01T04:58:51.183Z,79.63
2022-10-01T05:03:57.455Z,80.40
2022-10-01T05:09:05.540Z,79.49
2022-10-01T05:14:15.488Z,79.86
2022-10-01T05:19:25.281Z,79.85
2022-10-01T05:24:35.507Z,80.70
2022-10-01T05:29:42.917Z,80.77
2022-10-01T05:34:53.430Z,80.18
2022-10-01T05:40:02.098Z,80.13
2022-10-01T05:45:11.948Z,80.04
2022-10-01T05:50:18.581Z,80.45
2022-10-01T05:55:26.788Z,81.18
2022-10-01T06:00:34.446Z,82.10
2022-10-01T06:05:41.722Z,81.83
2022-10-01T06:10:49.497Z,82.73
2022-10-01T06:15:56.686Z,83.16
2022-10-01T06:21:03.004Z,83.36
2022-10-01T06:26:10.592Z,83.83
2022-10-01T06:31:17.091Z,83.43
2022-10-01T06:36:23.365Z,83.21
2022-10-01T06:41:31.012Z,83.43
2022-10-01T06:46:37.709Z,83.03
2022-10-01T06:52:01.494Z,82.86
2022-10-01T06:57:09.349Z,83.35
2022-10-01T07:02:29.167Z,84.81
2022-10-01T07:07:37.772Z,84.72
2022-10-01T07:12:46.434Z,84.90
2022-10-01T07:17:54.076Z,85.30
2022-10-01T07:23:01.985Z,87.08
2022-10-01T07:28:16.957Z,86.78
2022-10-01T07:33:23.391Z,87.21
2022-10-01T07:38:29.433Z,87.20
2022-10-01T07:43:36.862Z,87.73
2022-10-01T07:48:46.551Z,88.18
2022-10-01T07:53:54.179Z,88.46
2022-10-01T07:59:03.181Z,88.98
2022-10-01T08:04:23.031Z,89.29
2022-10-01T08:09:29.047Z,88.58
2022-10-01T08:14:36.488Z,88.54
2022-10-01T08:19:42.741Z,88.82
2022-10-01T08:24:49.226Z,88.38
2022-10-01T08:29:56.742Z,88.62
2022-10-01T08:35:04.543Z,89.03
2022-10-01T08:40:12.337Z,89.24
2022-10-01T08:45:26.909Z,88.88
2022-10-01T08:50:48.814Z,88.21
2022-10-01T08:55:57.614Z,87.60
2022-10-01T09:01:06.175Z,87.41
2022-10-01T09:06:21.703Z,86.86
2022-10-01T09:11:43.898Z,86.34
2022-10-01T09:17:00.438Z,85.95
2022-10-01T09:22:16.309Z,85.46
2022-10-01T09:27:27.582Z,85.42
2022-10-01T09:32:40.286Z,84.55
2022-10-01T09:37:55.021Z,84.81
2022-10-01T09:43:01.216Z,84.91
2022-10-01T09:48:29.803Z,83.99
2022-10-01T09:53:42.690Z,83.44
2022-10-01T09:58:55.307Z,84.20
2022-10-01T10:04:03.064Z,83.55
2022-10-01T10:09:19.401Z,82.21
2022-10-01T10:14:33.577Z,81.19
2022-10-01T10:19:49.608Z,80.67
2022-10-01T10:24:59.261Z,80.38
2022-10-01T10:30:09.053Z,80.82
2022-10-01T10:35:22.233Z,80.88
2022-10-01T10:40:34.006Z,80.51
2022-10-01T10:45:46.961Z,79.55
2022-10-01T10:51:02.605Z,79.33
2022-10-01T10:56:23.077Z,78.45
2022-10-01T11:01:31.284Z,77.74
2022-10-01T11:06:40.207Z,77.04
2022-10-01T11:11:56.728Z,77.90
2022-10-01T11:17:26.037Z,78.18
2022-10-01T11:22:54.244Z,77.04
2022-10-01T11:28:14.580Z,76.96
2022-10-01T11:33:32.322Z,78.19
2022-10-01T11:38:54.045Z,76.06
2022-10-01T11:44:05.476Z,75.84
2022-10-01T11:49:45.730Z,75.92
2022-10-01T11:55:25.178Z,75.93
2022-10-01T12:00:31.607Z,75.33
2022-10-01T12:05:39.128Z,75.02
2022-10-01T12:10:55.313Z,75.17
2022-10-01T12:16:08.488Z,76.66
2022-10-01T12:21:21.983Z,75.54
2022-10-01T12:26:43.752Z,74.78
2022-10-01T12:32:00.103Z,76.73
2022-10-01T12:37:18.936Z,75.91
2022-10-01T12:43:03.856Z,75.67
2022-10-01T12:48:21.704Z,75.14
2022-10-01T12:53:40.598Z,75.59
2022-10-01T12:59:17.388Z,77.43
2022-10-01T13:04:51.533Z,77.89
2022-10-01T13:10:12.290Z,77.29
2022-10-01T13:15:24.933Z,77.20
2022-10-01T13:20:41.373Z,77.70
2022-10-01T13:25:59.882Z,78.32
2022-10-01T13:31:16.089Z,78.76
2022-10-01T13:36:32.358Z,78.75
2022-10-01T13:41:41.765Z,79.48
2022-10-01T13:46:58.275Z,77.82
2022-10-01T13:52:06.271Z,76.97
2022-10-01T13:57:31.131Z,77.71
2022-10-01T14:02:41.712Z,77.76
2022-10-01T14:07:51.994Z,78.59
2022-10-01T14:13:19.552Z,78.13
2022-10-01T14:18:36.157Z,77.74
2022-10-01T14:23:52.545Z,77.31
2022-10-01T14:29:16.715Z,77.91
2022-10-01T14:34:45.650Z,77.12
2022-10-01T14:40:04.254Z,76.99
2022-10-01T14:45:18.600Z,77.23
2022-10-01T14:50:26.177Z,76.64
2022-10-01T14:55:33.441Z,77.20
2022-10-01T15:00:49.611Z,77.37
2022-10-01T15:06:05.603Z,78.75
2022-10-01T15:11:20.104Z,78.60
2022-10-01T15:16:29.321Z,79.35
2022-10-01T15:21:40.816Z,79.30
2022-10-01T15:26:49.619Z,79.66
2022-10-01T15:31:59.074Z,79.72
2022-10-01T15:37:06.779Z,79.93
2022-10-01T15:42:27.345Z,80.34
2022-10-01T15:47:37.807Z,80.56
2022-10-01T15:52:54.445Z,81.16
2022-10-01T15:58:15.376Z,80.63
2022-10-01T16:03:25.655Z,81.10
2022-10-01T16:08:38.617Z,80.85
2022-10-01T16:13:46.437Z,80.72
2022-10-01T16:18:58.659Z,81.02
2022-10-01T16:24:27.024Z,81.26
2022-10-01T16:29:33.275Z,81.70
2022-10-01T16:34:39.433Z,81.63
2022-10-01T16:39:46.965Z,81.80
2022-10-01T16:44:53.203Z,82.35
2022-10-01T16:49:59.172Z,82.20
2022-10-01T16:55:15.550Z,82.18
2022-10-01T17:00:23.497Z,82.06
2022-10-01T17:05:31.592Z,82.40
2022-10-01T17:10:46.515Z,82.19
2022-10-01T17:15:53.575Z,81.83
2022-10-01T17:20:59.815Z,81.77
2022-10-01T17:26:10.082Z,82.05
2022-10-01T17:31:18.943Z,81.79
2022-10-01T17:36:26.304Z,82.07
2022-10-01T17:41:36.611Z,82.14
2022-10-01T17:46:43.487Z,81.84
2022-10-01T17:51:51.082Z,82.11
2022-10-01T17:56:58.642Z,82.03
2022-10-01T18:02:18.631Z,81.93
2022-10-01T18:07:30.897Z,81.94
2022-10-01T18:12:38.207Z,82.45
2022-10-01T18:17:51.405Z,82.57
2022-10-01T18:22:57.954Z,82.10
2022-10-01T18:28:05.663Z,81.94
2022-10-01T18:33:14.288Z,82.43
2022-10-01T18:38:25.689Z,81.89
2022-10-01T18:43:39.649Z,82.28
2022-10-01T18:49:26.638Z,82.31
2022-10-01T18:55:22.732Z,82.47
2022-10-01T19:00:38.934Z,82.76
2022-10-01T19:06:23.104Z,82.66
2022-10-01T19:11:40.053Z,82.97
2022-10-01T19:17:00.951Z,83.00
2022-10-01T19:22:18.919Z,83.08
2022-10-01T19:27:42.010Z,82.89
2022-10-01T19:33:00.270Z,83.22
2022-10-01T19:38:14.630Z,83.24
2022-10-01T19:43:28.277Z,83.36
2022-10-01T19:48:51.288Z,83.65
2022-10-01T19:54:01.808Z,83.90
2022-10-01T19:59:12.518Z,84.17
2022-10-01T20:04:32.321Z,83.74
2022-10-01T20:09:46.212Z,84.21
2022-10-01T20:15:11.893Z,84.62
2022-10-01T20:20:25.527Z,84.60
2022-10-01T20:25:44.784Z,84.61
2022-10-01T20:31:00.540Z,84.24
2022-10-01T20:36:16.206Z,84.67
2022-10-01T20:41:26.227Z,84.51
2022-10-01T20:46:39.214Z,84.18
2022-10-01T20:51:57.319Z,83.89
2022-10-01T20:57:12.452Z,84.51
2022-10-01T21:02:34.436Z,83.95
2022-10-01T21:07:53.600Z,84.19
2022-10-01T21:13:04.113Z,84.66
2022-10-01T21:18:20.651Z,84.46
2022-10-01T21:24:11.439Z,84.75
2022-10-01T21:30:00.636Z,85.71
2022-10-01T21:35:20.438Z,86.08
2022-10-01T21:40:44.351Z,85.72
2022-10-01T21:46:01.549Z,85.58
2022-10-01T21:51:18.961Z,85.80
2022-10-01T21:56:55.285Z,85.45
2022-10-01T22:02:10.163Z,85.08
2022-10-01T22:07:24.390Z,85.12
2022-10-01T22:12:37.209Z,86.06
2022-10-01T22:17:43.329Z,86.38
2022-10-01T22:22:51.385Z,86.09
2022-10-01T22:28:04.924Z,86.18
2022-10-01T22:33:17.171Z,86.35
2022-10-01T22:38:27.173Z,86.63
2022-10-01T22:43:35.124Z,86.55
2022-10-01T22:48:58.742Z,86.75
2022-10-01T22:54:27.106Z,86.12
2022-10-01T22:59:46.393Z,86.21
2022-10-01T23:05:07.594Z,86.48
2022-10-01T23:10:20.699Z,86.79
2022-10-01T23:15:43.275Z,86.03
2022-10-01T23:21:08.525Z,86.08
2022-10-01T23:26:32.393Z,86.39
2022-10-01T23:31:51.286Z,86.68
2022-10-01T23:37:19.034Z,86.70
2022-10-01T23:42:37.154Z,85.85
2022-10-01T23:47:54.551Z,85.72
2022-10-01T23:53:13.992Z,86.01
2022-10-01T23:58:22.435Z,85.93
